Time;durP1;ratioP1;P1;durP2;ratioP2;P2;SDS_P1;SDS_P2;PMS_P1;PMS_P2;Temp;Humidity;BMP_temperature;BMP_pressure;BME280_temperature;BME280_humidity;BME280_pressure;Samples;Min_cycle;Max_cycle;Signal;HPM_P1;HPM_P2
2022/12/16 00:02:17;;;;;;;304.48;98.68;;;-0.70;99.90;;;-2.21;100.00;96087.59;5070242;28;20475;-76
2022/12/16 00:04:43;;;;;;;263.17;85.07;;;-0.70;99.90;;;-2.23;100.00;96087.78;5076923;28;20402;-76
2022/12/16 00:07:09;;;;;;;250.18;81.15;;;-0.70;99.90;;;-2.23;100.00;96081.81;5076490;28;20400;-76
2022/12/16 00:09:35;;;;;;;229.25;73.78;;;-0.70;99.90;;;-2.25;100.00;96087.19;5071198;28;20420;-75
2022/12/16 00:12:03;;;;;;;200.68;67.10;;;-0.70;99.90;;;-2.24;100.00;96088.78;5070099;28;20413;-76
2022/12/16 00:14:29;;;;;;;247.43;79.93;;;-0.70;99.90;;;-2.23;100.00;96087.00;5079350;22;20470;-77
2022/12/16 00:16:55;;;;;;;252.75;83.32;;;-0.70;99.90;;;-2.22;100.00;96091.97;5064196;28;20895;-77
2022/12/16 00:19:21;;;;;;;249.00;82.90;;;-0.70;99.90;;;-2.23;100.00;96087.78;5062641;28;20409;-77
2022/12/16 00:21:47;;;;;;;232.07;76.20;;;-0.70;99.90;;;-2.23;100.00;96087.78;5049068;28;20420;-77
2022/12/16 00:24:13;;;;;;;239.80;81.20;;;-0.70;99.90;;;-2.22;100.00;96093.78;5041806;28;20864;-76
2022/12/16 00:26:39;;;;;;;260.90;85.85;;;-0.70;99.90;;;-2.22;100.00;96086.00;5029938;28;20421;-77
2022/12/16 00:29:06;;;;;;;252.87;81.53;;;-0.70;99.90;;;-2.23;100.00;96084.41;5015479;28;20506;-76
2022/12/16 00:31:32;;;;;;;222.45;73.18;;;-0.70;99.90;;;-2.24;100.00;96093.16;5032596;28;20457;-76
2022/12/16 00:33:58;;;;;;;318.73;103.07;;;-0.70;99.90;;;-2.24;100.00;96082.81;5032715;28;20901;-76
2022/12/16 00:36:24;;;;;;;279.95;92.65;;;-0.70;99.90;;;-2.25;100.00;96092.38;5033142;28;20406;-76
2022/12/16 00:38:51;;;;;;;270.90;90.15;;;-0.70;99.90;;;-2.27;100.00;96088.41;5033079;28;20772;-76
2022/12/16 00:41:17;;;;;;;236.38;78.60;;;-0.70;99.90;;;-2.30;100.00;96092.19;5032375;28;20900;-75
2022/12/16 00:43:43;;;;;;;235.20;77.97;;;-0.80;99.90;;;-2.31;100.00;96093.19;5032551;28;20403;-77
2022/12/16 00:46:11;;;;;;;241.10;81.60;;;-0.80;99.90;;;-2.32;100.00;96104.53;5033008;28;20399;-77
2022/12/16 00:48:36;;;;;;;226.38;76.00;;;-0.80;99.90;;;-2.33;100.00;96099.59;5032955;28;20403;-77
2022/12/16 00:51:03;;;;;;;232.05;78.10;;;-0.80;99.90;;;-2.35;100.00;96099.78;5032851;28;20413;-76
2022/12/16 00:53:28;;;;;;;215.18;71.65;;;-0.80;99.90;;;-2.33;100.00;96104.78;5032013;28;20506;-77
2022/12/16 00:56:02;;;;;;;195.75;66.35;;;-0.80;99.90;;;-2.33;100.00;96099.59;5032966;28;20403;-76
2022/12/16 00:58:28;;;;;;;194.00;64.43;;;-0.80;99.90;;;-2.33;100.00;96101.16;5032933;28;20403;-76
2022/12/16 01:00:54;;;;;;;245.13;78.72;;;-0.80;99.90;;;-2.30;100.00;96106.94;5032588;28;20403;-76
2022/12/16 01:03:21;;;;;;;224.98;74.20;;;-0.80;99.90;;;-2.32;100.00;96104.53;5014051;28;20415;-77
2022/12/16 01:05:48;;;;;;;204.07;72.10;;;-0.80;99.90;;;-2.31;100.00;96113.13;5032606;28;20428;-76
2022/12/16 01:08:14;;;;;;;221.10;72.95;;;-0.80;99.90;;;-2.33;100.00;96113.31;5032703;28;20406;-77
2022/12/16 01:10:39;;;;;;;193.63;66.07;;;-0.80;99.90;;;-2.32;100.00;96117.50;5032220;28;20407;-76
2022/12/16 01:13:05;;;;;;;212.20;68.93;;;-0.80;99.90;;;-2.31;100.00;96121.69;5031492;28;20415;-76
2022/12/16 01:15:31;;;;;;;206.77;70.40;;;-0.80;99.90;;;-2.30;100.00;96118.09;5032245;28;20410;-76
2022/12/16 01:17:57;;;;;;;224.23;74.00;;;-0.80;99.90;;;-2.30;100.00;96120.69;5032393;28;20414;-77
2022/12/16 01:20:25;;;;;;;178.60;64.33;;;-0.80;99.90;;;-2.28;100.00;96128.28;5032219;28;20401;-75
2022/12/16 01:22:50;;;;;;;169.73;59.60;;;-0.80;99.90;;;-2.29;100.00;96130.06;5031522;28;20954;-77
2022/12/16 01:25:16;;;;;;;174.00;60.22;;;-0.80;99.90;;;-2.27;100.00;96130.66;5032098;28;20442;-76
2022/12/16 01:27:42;;;;;;;167.70;58.50;;;-0.80;99.90;;;-2.27;100.00;96128.09;5032084;28;20407;-77
2022/12/16 01:30:12;;;;;;;185.63;63.17;;;-0.70;99.90;;;-2.28;100.00;96139.44;5032278;28;20411;-77
2022/12/16 01:32:38;;;;;;;247.75;83.38;;;-0.80;99.90;;;-2.27;100.00;96135.84;5031203;28;20434;-77
2022/12/16 01:35:05;;;;;;;229.67;80.20;;;-0.80;99.90;;;-2.28;100.00;96136.06;5031562;28;20400;-77
2022/12/16 01:37:33;;;;;;;239.00;80.65;;;-0.80;99.90;;;-2.29;100.00;96135.25;5031873;28;20461;-76
2022/12/16 01:39:59;;;;;;;212.73;73.47;;;-0.80;99.90;;;-2.30;100.00;96133.66;5031969;28;20404;-76
2022/12/16 01:42:29;;;;;;;190.27;65.83;;;-0.80;99.90;;;-2.31;100.00;96137.25;5031163;28;20457;-76
2022/12/16 01:44:55;;;;;;;180.30;62.50;;;-0.80;99.90;;;-2.33;100.00;96140.03;5031833;28;20403;-77
2022/12/16 01:47:25;;;;;;;240.52;81.15;;;-0.80;99.90;;;-2.33;100.00;96148.81;5031941;28;20453;-76
2022/12/16 01:49:57;;;;;;;201.00;70.05;;;-0.80;99.90;;;-2.35;100.00;96146.44;5031850;28;20893;-77
2022/12/16 01:52:28;;;;;;;181.73;63.70;;;-0.80;99.90;;;-2.35;100.00;96149.81;5029699;28;21002;-76
2022/12/16 01:55:01;;;;;;;230.93;78.22;;;-0.80;99.90;;;-2.35;100.00;96151.59;5031518;28;20406;-76
2022/12/16 01:57:35;;;;;;;203.95;70.47;;;-0.80;99.90;;;-2.38;100.00;96155.38;5031688;28;20915;-77
2022/12/16 02:00:03;;;;;;;188.10;66.63;;;-0.80;99.90;;;-2.38;100.00;96157.19;5031602;28;20513;-76
2022/12/16 02:02:29;;;;;;;203.45;71.78;;;-0.80;99.90;;;-2.37;100.00;96163.97;5030714;28;20432;-77
2022/12/16 02:07:39;;;;;;;188.13;67.63;;;-0.90;99.90;;;-2.36;100.00;96162.97;5031370;28;20398;-77
2022/12/16 02:10:10;;;;;;;185.80;66.90;;;-0.80;99.90;;;-2.35;100.00;96161.97;5031352;28;20773;-78
2022/12/16 02:12:43;;;;;;;192.07;66.22;;;-0.90;99.90;;;-2.36;100.00;96165.56;5030599;28;20418;-77
2022/12/16 02:15:25;;;;;;;191.00;63.47;;;-0.80;99.90;;;-2.37;100.00;96163.97;5031249;28;20414;-78
2022/12/16 02:17:59;;;;;;;167.15;58.65;;;-0.90;99.90;;;-2.36;100.00;96166.34;5031287;28;20421;-78
2022/12/16 02:21:14;;;;;;;147.13;54.78;;;-0.80;99.90;;;-2.35;100.00;96164.56;5031185;28;20410;-77
2022/12/16 02:24:29;;;;;;;164.40;59.07;;;-0.80;99.90;;;-2.34;100.00;96171.34;5030662;28;20398;-76
2022/12/16 02:27:39;;;;;;;161.85;57.55;;;-0.80;99.90;;;-2.36;100.00;96168.94;5031131;28;20403;-78
2022/12/16 02:30:22;;;;;;;147.67;54.10;;;-0.80;99.90;;;-2.35;100.00;96175.72;5030951;28;20410;-77
2022/12/16 02:32:59;;;;;;;188.75;68.25;;;-0.80;99.90;;;-2.35;100.00;96165.38;5030057;28;20915;-77
2022/12/16 02:35:38;;;;;;;162.80;58.08;;;-0.80;99.90;;;-2.34;100.00;96163.56;5030843;28;20399;-77
2022/12/16 02:38:19;;;;;;;152.10;56.55;;;-0.80;99.90;;;-2.33;100.00;96170.31;5030741;28;20399;-77
2022/12/16 02:40:52;;;;;;;163.10;60.60;;;-0.80;99.90;;;-2.33;100.00;96166.97;5030723;28;20403;-78
2022/12/16 02:43:30;;;;;;;206.30;69.50;;;-0.80;99.90;;;-2.33;100.00;96167.72;5029965;28;20896;-77
2022/12/16 02:45:58;;;;;;;158.10;59.42;;;-0.80;99.90;;;-2.35;100.00;96170.53;5013100;28;20900;-78
2022/12/16 02:48:24;;;;;;;160.00;56.67;;;-0.80;99.90;;;-2.35;100.00;96175.72;5030685;28;20403;-77
2022/12/16 02:50:51;;;;;;;153.82;57.33;;;-0.80;99.90;;;-2.35;100.00;96186.09;5030025;28;21001;-78
2022/12/16 02:53:19;;;;;;;159.40;57.53;;;-0.80;99.90;;;-2.34;100.00;96181.72;5029656;28;20415;-78
2022/12/16 02:55:59;;;;;;;176.40;62.20;;;-0.80;99.90;;;-2.34;100.00;96189.47;5030421;28;20403;-78
2022/12/16 02:58:31;;;;;;;152.90;55.83;;;-0.80;99.90;;;-2.35;100.00;96187.88;5030519;28;20395;-78
2022/12/16 03:01:08;;;;;;;131.23;48.70;;;-0.80;99.90;;;-2.35;100.00;96190.47;5029271;28;20812;-78
2022/12/16 03:03:43;;;;;;;124.43;49.83;;;-0.80;99.90;;;-2.33;100.00;96198.06;5029484;28;20414;-78
2022/12/16 03:06:12;;;;;;;175.45;63.55;;;-0.80;99.90;;;-2.35;100.00;96199.06;5030473;28;20395;-78
2022/12/16 03:08:44;;;;;;;163.70;59.58;;;-0.90;99.90;;;-2.36;100.00;96202.63;5030294;28;20411;-77
2022/12/16 03:11:11;;;;;;;137.55;52.67;;;-0.80;99.90;;;-2.36;100.00;96200.03;5030255;28;20403;-78
2022/12/16 03:13:43;;;;;;;148.25;53.13;;;-0.80;99.90;;;-2.35;100.00;96199.06;5028056;28;20442;-77
2022/12/16 03:16:16;;;;;;;163.10;60.43;;;-0.90;99.90;;;-2.34;100.00;96197.25;5030285;28;20469;-78
2022/12/16 03:18:46;;;;;;;159.52;57.70;;;-0.80;99.90;;;-2.37;100.00;96192.47;5030197;28;20795;-77
2022/12/16 03:21:14;;;;;;;154.98;57.80;;;-0.90;99.90;;;-2.37;100.00;96190.66;5030079;28;20861;-77
2022/12/16 03:23:46;;;;;;;162.95;59.92;;;-0.80;99.90;;;-2.37;100.00;96198.44;5029571;28;20426;-78
2022/12/16 03:26:17;;;;;;;139.10;53.65;;;-0.90;99.90;;;-2.36;100.00;96210.41;5030169;28;20398;-77
2022/12/16 03:28:49;;;;;;;151.98;57.95;;;-0.90;99.90;;;-2.37;100.00;96203.63;5029978;28;20411;-77
2022/12/16 03:31:29;;;;;;;142.03;52.43;;;-0.80;99.90;;;-2.36;100.00;96207.81;5029424;28;20761;-77
2022/12/16 03:34:04;;;;;;;116.55;44.28;;;-0.90;99.90;;;-2.35;100.00;96212.00;5029596;28;20498;-77
2022/12/16 03:36:36;;;;;;;103.18;39.03;;;-0.90;99.90;;;-2.33;100.00;96216.19;5030029;28;20401;-77
2022/12/16 03:39:03;;;;;;;119.20;44.92;;;-0.80;99.90;;;-2.33;100.00;96214.38;5029912;28;20393;-77
2022/12/16 03:41:31;;;;;;;185.18;69.55;;;-0.80;99.90;;;-2.33;100.00;96219.56;5029362;28;20493;-77
2022/12/16 03:43:57;;;;;;;167.82;62.47;;;-0.80;99.90;;;-2.36;100.00;96215.59;5029567;28;20410;-77
2022/12/16 03:46:25;;;;;;;166.85;61.83;;;-0.80;99.90;;;-2.36;100.00;96225.94;5029834;28;20407;-77
2022/12/16 03:48:51;;;;;;;163.75;62.90;;;-0.90;99.90;;;-2.35;100.00;96226.75;5029948;28;20808;-77
2022/12/16 03:51:18;;;;;;;164.63;61.08;;;-0.90;99.90;;;-2.35;100.00;96231.94;5029181;28;20403;-76
2022/12/16 03:53:45;;;;;;;175.68;65.55;;;-0.80;99.90;;;-2.37;100.00;96228.75;5029236;28;20466;-77
2022/12/16 03:56:11;;;;;;;156.23;61.15;;;-0.80;99.90;;;-2.39;100.00;96231.53;5029766;28;20407;-77
2022/12/16 03:58:39;;;;;;;162.70;61.38;;;-0.90;99.90;;;-2.36;100.00;96232.94;5029720;28;20411;-77
2022/12/16 04:01:06;;;;;;;144.70;55.83;;;-0.80;99.90;;;-2.33;100.00;96230.72;5029588;28;20462;-77
2022/12/16 04:03:34;;;;;;;153.13;57.92;;;-0.80;99.90;;;-2.33;100.00;96235.91;5032627;28;20399;-77
2022/12/16 04:05:59;;;;;;;136.88;53.78;;;-0.80;99.90;;;-2.33;100.00;96235.09;5033676;28;20407;-77
2022/12/16 04:08:25;;;;;;;132.35;52.38;;;-0.80;99.90;;;-2.34;100.00;96243.91;5033743;28;20520;-77
2022/12/16 04:25:01;;;;;;;114.45;49.50;;;-0.90;99.90;;;-2.37;100.00;96254.66;5033551;28;20394;-77
2022/12/16 04:27:28;;;;;;;97.73;42.97;;;-0.90;99.90;;;-2.39;100.00;96251.44;5033713;28;20395;-77
